Time;durP1;ratioP1;P1;durP2;ratioP2;P2;SDS_P1;SDS_P2;PMS_P1;PMS_P2;Temp;Humidity;BMP_temperature;BMP_pressure;BME280_temperature;BME280_humidity;BME280_pressure;Samples;Min_cycle;Max_cycle;Signal;HPM_P1;HPM_P2
2023/06/01 00:02:22;;;;;;;6.90;4.35;;;14.90;99.90;;;;;;4996474;28;20109;-80
2023/06/01 00:04:48;;;;;;;6.32;3.50;;;14.80;99.90;;;;;;4996472;28;20515;-80
2023/06/01 00:07:14;;;;;;;9.98;3.65;;;14.70;99.90;;;;;;4996244;28;20026;-80
2023/06/01 00:09:40;;;;;;;4.97;3.78;;;14.70;99.90;;;;;;5013484;28;20498;-80
2023/06/01 00:12:06;;;;;;;7.10;4.00;;;14.60;99.90;;;;;;4996223;28;20030;-79
2023/06/01 00:14:32;;;;;;;6.72;4.35;;;14.60;99.90;;;;;;4996108;28;20080;-80
2023/06/01 00:16:58;;;;;;;7.38;3.78;;;14.60;99.90;;;;;;4995150;28;20038;-79
2023/06/01 00:19:25;;;;;;;5.80;4.25;;;14.60;99.90;;;;;;4996219;28;20120;-80
2023/06/01 00:21:53;;;;;;;4.97;4.10;;;14.60;99.90;;;;;;4996160;28;20426;-81
2023/06/01 00:24:20;;;;;;;6.68;4.00;;;14.60;99.90;;;;;;4995932;28;20022;-81
2023/06/01 00:26:46;;;;;;;6.65;3.55;;;14.60;99.90;;;;;;4995927;28;20022;-80
2023/06/01 00:29:12;;;;;;;7.40;4.40;;;14.60;99.90;;;;;;4995963;28;20022;-79
2023/06/01 00:31:38;;;;;;;5.65;3.72;;;14.50;99.90;;;;;;5013480;28;20100;-81
2023/06/01 00:34:04;;;;;;;6.15;3.83;;;14.50;99.90;;;;;;4996022;28;20546;-80
2023/06/01 00:36:31;;;;;;;4.05;3.45;;;14.50;99.90;;;;;;4995601;28;20494;-81
2023/06/01 00:39:01;;;;;;;5.25;3.80;;;14.50;99.90;;;;;;4995827;28;20390;-80
2023/06/01 00:41:28;;;;;;;6.07;3.72;;;14.50;99.90;;;;;;5013387;28;20026;-80
2023/06/01 00:43:53;;;;;;;5.47;4.35;;;14.50;99.90;;;;;;4995636;28;20026;-79
2023/06/01 00:46:19;;;;;;;13.60;4.55;;;14.50;99.90;;;;;;5013180;28;20036;-80
2023/06/01 00:48:45;;;;;;;4.95;4.45;;;14.40;99.90;;;;;;4995561;28;20525;-80
2023/06/01 00:51:12;;;;;;;6.75;3.88;;;14.30;99.90;;;;;;4995672;28;20470;-80
2023/06/01 00:53:38;;;;;;;4.93;4.00;;;14.30;99.90;;;;;;4995701;28;20030;-79
2023/06/01 00:56:04;;;;;;;5.55;3.63;;;14.40;99.90;;;;;;4995427;28;20029;-80
2023/06/01 00:58:30;;;;;;;8.43;3.85;;;14.30;99.90;;;;;;4995377;28;20030;-80
2023/06/01 01:00:56;;;;;;;8.00;4.82;;;14.40;99.90;;;;;;4995568;28;20074;-80
2023/06/01 01:03:25;;;;;;;5.70;4.00;;;14.40;99.90;;;;;;4995345;28;20057;-80
2023/06/01 01:06:04;;;;;;;6.20;4.15;;;14.40;99.90;;;;;;4995381;28;20076;-80
2023/06/01 01:08:40;;;;;;;5.07;3.53;;;14.30;99.90;;;;;;4995279;28;20022;-79
2023/06/01 01:11:31;;;;;;;;;;;14.20;99.90;;;;;;5013068;28;20068;-80
2023/06/01 01:14:07;;;;;;;8.07;4.15;;;14.20;99.90;;;;;;4993244;28;19905;-79
2023/06/01 01:16:48;;;;;;;5.75;3.65;;;14.10;99.90;;;;;;4995155;28;20038;-79
2023/06/01 01:19:50;;;;;;;8.05;4.40;;;14.10;99.90;;;;;;4995102;28;20088;-80
2023/06/01 01:23:08;;;;;;;5.45;3.80;;;14.10;99.90;;;;;;4995153;28;20104;-80
2023/06/01 01:26:03;;;;;;;9.00;4.60;;;14.00;99.90;;;;;;4936157;29;20071;-80
2023/06/01 01:28:42;;;;;;;6.07;4.13;;;14.00;99.90;;;;;;5018375;28;20018;-79
2023/06/01 01:31:12;;;;;;;5.47;4.30;;;14.00;99.90;;;;;;5002026;28;20033;-79
2023/06/01 01:33:39;;;;;;;8.50;4.93;;;13.90;99.90;;;;;;5019597;28;20018;-80
2023/06/01 01:36:06;;;;;;;6.72;3.92;;;13.80;99.90;;;;;;5001550;28;20052;-80
2023/06/01 01:38:36;;;;;;;7.10;4.65;;;13.80;99.90;;;;;;5001831;28;20034;-80
2023/06/01 01:41:02;;;;;;;5.60;3.80;;;13.80;99.90;;;;;;5002015;28;20040;-80
2023/06/01 01:43:29;;;;;;;6.20;3.55;;;13.70;99.90;;;;;;5001638;28;20063;-81
2023/06/01 01:46:05;;;;;;;7.22;4.28;;;13.80;99.90;;;;;;5001525;28;20049;-80
2023/06/01 01:48:37;;;;;;;5.07;4.20;;;13.60;99.90;;;;;;5019030;28;20497;-80
2023/06/01 01:51:19;;;;;;;5.82;3.75;;;13.60;99.90;;;;;;5001676;28;20029;-80
2023/06/01 01:53:45;;;;;;;7.75;4.05;;;13.60;99.90;;;;;;5001670;28;20030;-80
2023/06/01 01:56:13;;;;;;;5.63;3.70;;;13.70;99.90;;;;;;5001218;28;20037;-80
2023/06/01 01:58:40;;;;;;;6.70;4.35;;;13.80;99.90;;;;;;5001489;28;20064;-81
2023/06/01 02:01:06;;;;;;;5.32;4.15;;;13.70;99.90;;;;;;5001485;28;20036;-81
2023/06/01 02:03:32;;;;;;;8.35;4.13;;;13.70;99.90;;;;;;5001367;28;20030;-81
2023/06/01 02:05:58;;;;;;;6.18;4.47;;;13.80;99.90;;;;;;5001239;28;20120;-81
2023/06/01 02:08:23;;;;;;;11.15;5.32;;;13.70;99.90;;;;;;5001451;28;20493;-81
2023/06/01 02:10:49;;;;;;;8.75;4.78;;;13.70;99.90;;;;;;5001350;28;20109;-81
2023/06/01 02:13:15;;;;;;;4.80;3.95;;;13.70;99.90;;;;;;5018981;28;20021;-81
2023/06/01 02:15:41;;;;;;;7.15;4.25;;;13.60;99.90;;;;;;5001257;28;20487;-81
2023/06/01 02:18:07;;;;;;;7.85;4.75;;;13.60;99.90;;;;;;5018682;28;20048;-81
2023/06/01 02:20:33;;;;;;;8.73;4.38;;;13.50;99.90;;;;;;5001305;28;20029;-80
2023/06/01 02:22:58;;;;;;;7.38;4.15;;;13.40;99.90;;;;;;5000830;28;20041;-79
2023/06/01 02:25:24;;;;;;;5.22;4.55;;;13.50;99.90;;;;;;5001169;28;20475;-80
2023/06/01 02:27:50;;;;;;;7.07;3.92;;;13.50;99.90;;;;;;5000922;28;20598;-79
2023/06/01 02:30:16;;;;;;;7.10;4.75;;;13.50;99.90;;;;;;5001394;28;20025;-81
2023/06/01 02:32:45;;;;;;;5.35;4.10;;;13.40;99.90;;;;;;5018769;28;20496;-81
2023/06/01 02:35:10;;;;;;;5.80;4.00;;;13.30;99.90;;;;;;5001050;28;20026;-81
2023/06/01 02:37:36;;;;;;;6.88;3.88;;;13.40;99.90;;;;;;5000930;28;20052;-79
2023/06/01 02:40:02;;;;;;;8.40;4.43;;;13.40;99.90;;;;;;4997333;28;20487;-80
2023/06/01 02:42:28;;;;;;;6.78;3.97;;;13.40;99.90;;;;;;5015493;28;20383;-80
2023/06/01 02:44:54;;;;;;;7.95;4.85;;;13.30;99.90;;;;;;5015435;28;20033;-81
2023/06/01 02:47:19;;;;;;;6.25;4.30;;;13.20;99.90;;;;;;4998029;28;20030;-80
2023/06/01 02:49:45;;;;;;;6.93;4.90;;;13.20;99.90;;;;;;5015386;28;20030;-80
2023/06/01 02:52:10;;;;;;;11.25;5.30;;;13.20;99.90;;;;;;4997874;28;20021;-80
2023/06/01 02:54:36;;;;;;;5.00;3.55;;;13.20;99.90;;;;;;4998056;28;20044;-80
2023/06/01 02:57:02;;;;;;;13.05;5.13;;;13.10;99.90;;;;;;4997610;28;20503;-80
2023/06/01 02:59:27;;;;;;;8.52;4.88;;;13.20;99.90;;;;;;4997838;28;20068;-79
2023/06/01 03:01:53;;;;;;;7.30;4.40;;;13.30;99.90;;;;;;4997817;28;20022;-80
2023/06/01 03:04:20;;;;;;;7.32;4.43;;;13.30;99.90;;;;;;4997809;28;20033;-80
2023/06/01 03:06:46;;;;;;;6.63;4.28;;;13.30;99.90;;;;;;4997419;28;20053;-80
2023/06/01 03:09:12;;;;;;;8.02;4.40;;;13.30;99.90;;;;;;4997463;28;20041;-80
2023/06/01 03:11:42;;;;;;;7.80;5.57;;;13.30;99.90;;;;;;4997685;28;20391;-80
2023/06/01 03:14:08;;;;;;;6.38;4.80;;;13.30;99.90;;;;;;4997370;28;20084;-81
2023/06/01 03:16:34;;;;;;;8.68;5.05;;;13.40;99.90;;;;;;4997226;28;20089;-81
2023/06/01 03:19:00;;;;;;;5.88;4.25;;;13.30;99.90;;;;;;4997328;28;20026;-81
2023/06/01 03:21:27;;;;;;;6.32;4.25;;;13.30;99.90;;;;;;4996701;28;20022;-80
2023/06/01 03:23:53;;;;;;;6.47;4.50;;;13.20;99.90;;;;;;5014619;28;20216;-81
2023/06/01 03:26:20;;;;;;;7.18;4.50;;;13.30;99.90;;;;;;4997039;28;20026;-81
2023/06/01 03:28:46;;;;;;;8.73;5.30;;;13.20;99.90;;;;;;4997158;28;20048;-79
2023/06/01 03:31:12;;;;;;;6.80;4.53;;;13.30;99.90;;;;;;4997313;28;20083;-81
2023/06/01 03:33:38;;;;;;;7.22;4.60;;;13.30;99.90;;;;;;5011618;28;20116;-81
2023/06/01 03:36:06;;;;;;;4.70;4.25;;;13.30;99.90;;;;;;5016573;28;20036;-79
2023/06/01 03:38:32;;;;;;;6.93;5.07;;;13.30;99.90;;;;;;5034251;28;20049;-81
2023/06/01 03:40:58;;;;;;;6.20;4.95;;;13.30;99.90;;;;;;5017801;28;20029;-80
2023/06/01 03:43:23;;;;;;;7.07;4.60;;;13.30;99.90;;;;;;5016842;28;20030;-80
2023/06/01 03:45:49;;;;;;;9.55;4.38;;;13.30;99.90;;;;;;5034232;28;20040;-81
2023/06/01 03:48:15;;;;;;;5.45;3.83;;;13.30;99.90;;;;;;5034056;28;20513;-81
2023/06/01 03:50:41;;;;;;;8.60;5.00;;;13.20;99.90;;;;;;5016567;28;20029;-81
2023/06/01 03:53:07;;;;;;;6.35;4.40;;;13.20;99.90;;;;;;5016525;28;20040;-81
2023/06/01 03:55:32;;;;;;;8.35;5.25;;;13.20;99.90;;;;;;5033912;28;20029;-81
2023/06/01 03:57:58;;;;;;;7.60;4.88;;;13.20;99.90;;;;;;5016167;28;20030;-81
2023/06/01 04:00:24;;;;;;;6.97;4.30;;;13.20;99.90;;;;;;5016271;28;20030;-80
2023/06/01 04:03:02;;;;;;;8.88;5.05;;;13.20;99.90;;;;;;5016598;28;20068;-81
2023/06/01 04:05:27;;;;;;;6.60;4.95;;;13.30;99.90;;;;;;5016214;28;20025;-81
2023/06/01 04:07:54;;;;;;;6.38;4.43;;;13.30;99.90;;;;;;5016145;28;20083;-81
2023/06/01 04:10:21;;;;;;;8.27;4.88;;;13.40;99.90;;;;;;5034011;28;20022;-80
2023/06/01 04:12:51;;;;;;;6.53;4.13;;;13.50;99.90;;;;;;5016197;28;20029;-81
2023/06/01 04:15:18;;;;;;;6.60;4.93;;;13.50;99.90;;;;;;5016101;28;20025;-81
2023/06/01 04:17:44;;;;;;;7.88;5.38;;;13.70;99.90;;;;;;5016494;28;20037;-81
2023/06/01 04:20:12;;;;;;;7.85;3.85;;;13.80;99.90;;;;;;5034705;28;20029;-80
2023/06/01 04:22:39;;;;;;;7.15;5.13;;;13.90;99.90;;;;;;5016843;28;20029;-81
2023/06/01 04:25:18;;;;;;;5.68;3.97;;;13.90;99.90;;;;;;5017174;28;20053;-80
2023/06/01 04:27:48;;;;;;;7.22;5.13;;;14.00;99.90;;;;;;5016417;28;20021;-82
2023/06/01 04:30:16;;;;;;;10.73;5.68;;;14.00;99.90;;;;;;5016633;28;20485;-81
2023/06/01 04:32:44;;;;;;;7.90;4.45;;;14.20;99.90;;;;;;5016042;28;20025;-81
2023/06/01 04:35:10;;;;;;;7.22;4.80;;;14.20;99.90;;;;;;5014691;28;20025;-81
2023/06/01 04:37:39;;;;;;;8.90;4.30;;;14.20;99.90;;;;;;4996670;28;20474;-83
2023/06/01 04:40:09;;;;;;;6.30;4.10;;;14.30;99.90;;;;;;4995871;28;20049;-79
2023/06/01 04:42:55;;;;;;;8.82;4.55;;;15.80;99.90;;;;;;4996163;28;20414;-79
2023/06/01 04:45:21;;;;;;;;;;;16.60;99.90;;;;;;4996617;28;20627;-80
2023/06/01 04:47:47;;;;;;;;;;;16.40;99.90;;;;;;5000136;28;19905;-81
2023/06/01 04:50:15;;;;;;;;;;;16.50;99.90;;;;;;4996210;28;20007;-81
2023/06/01 04:52:41;;;;;;;6.57;4.47;;;16.70;99.90;;;;;;4995348;28;19906;-80
2023/06/01 04:55:09;;;;;;;9.35;5.18;;;17.20;99.90;;;;;;5012323;28;20485;-81
2023/06/01 04:57:35;;;;;;;5.93;4.43;;;17.40;99.90;;;;;;5015280;28;20032;-81
2023/06/01 05:00:09;;;;;;;8.13;5.00;;;17.20;99.90;;;;;;5015318;28;20025;-80
2023/06/01 05:02:34;;;;;;;5.07;4.57;;;17.10;99.90;;;;;;5014798;28;20025;-80
2023/06/01 05:05:00;;;;;;;4.38;3.95;;;17.30;99.90;;;;;;5032658;28;20018;-81
2023/06/01 05:07:26;;;;;;;7.00;5.03;;;17.10;99.90;;;;;;5032752;28;20096;-80
2023/06/01 05:09:51;;;;;;;8.40;4.88;;;17.10;99.90;;;;;;5015243;28;20024;-79
2023/06/01 05:12:17;;;;;;;7.13;4.28;;;17.30;99.90;;;;;;5033010;28;20083;-81
2023/06/01 05:14:42;;;;;;;8.10;5.00;;;17.60;99.90;;;;;;5014987;28;20387;-80
2023/06/01 05:17:08;;;;;;;8.10;4.30;;;17.80;99.90;;;;;;5014931;28;20063;-80
2023/06/01 05:19:34;;;;;;;9.68;3.83;;;18.00;99.60;;;;;;5032802;28;20123;-79
2023/06/01 05:21:59;;;;;;;4.85;4.22;;;17.90;99.10;;;;;;5015136;28;20112;-80
2023/06/01 05:24:25;;;;;;;5.28;3.17;;;18.00;98.40;;;;;;5015035;28;20461;-79
2023/06/01 05:26:51;;;;;;;6.07;4.55;;;18.00;97.70;;;;;;5014882;28;20072;-82
2023/06/01 05:29:16;;;;;;;12.13;4.55;;;18.10;97.90;;;;;;5014827;28;20079;-80
2023/06/01 05:31:42;;;;;;;3.95;2.92;;;18.50;97.50;;;;;;5014981;28;20497;-80
2023/06/01 05:34:07;;;;;;;4.32;3.65;;;18.60;96.80;;;;;;5014938;28;20029;-80
2023/06/01 05:36:34;;;;;;;6.13;3.67;;;18.80;96.30;;;;;;5014928;28;20036;-80
2023/06/01 05:38:59;;;;;;;4.75;3.72;;;18.90;95.70;;;;;;5032478;28;20017;-80
2023/06/01 05:41:25;;;;;;;10.23;3.55;;;18.80;95.40;;;;;;5014874;28;20159;-81
2023/06/01 05:43:52;;;;;;;8.88;3.30;;;18.90;95.50;;;;;;5032411;28;20057;-80
2023/06/01 05:46:17;;;;;;;4.95;2.80;;;19.00;95.10;;;;;;5014889;28;20392;-80
2023/06/01 05:48:43;;;;;;;6.55;3.60;;;19.20;94.20;;;;;;5014554;28;20116;-80
2023/06/01 05:51:09;;;;;;;7.10;3.40;;;19.30;93.40;;;;;;5014479;28;20030;-80
2023/06/01 05:53:34;;;;;;;6.95;3.83;;;19.30;92.90;;;;;;5014361;28;20481;-80
2023/06/01 05:56:00;;;;;;;3.72;2.95;;;19.30;92.40;;;;;;5014818;28;20037;-80
2023/06/01 05:58:25;;;;;;;9.80;3.85;;;19.30;92.40;;;;;;5032311;28;20057;-79
2023/06/01 06:00:51;;;;;;;7.45;3.13;;;19.30;92.60;;;;;;5032266;28;20477;-81
2023/06/01 06:03:17;;;;;;;7.35;4.72;;;19.20;92.90;;;;;;5014475;28;20032;-82
2023/06/01 06:05:42;;;;;;;5.95;3.97;;;19.30;92.80;;;;;;5014501;28;20500;-81
2023/06/01 06:08:10;;;;;;;6.57;4.28;;;19.30;92.80;;;;;;5014000;28;20052;-80
2023/06/01 06:10:35;;;;;;;9.00;3.58;;;19.40;93.20;;;;;;5014594;28;20486;-81
2023/06/01 06:13:01;;;;;;;9.18;3.95;;;19.60;92.80;;;;;;5014507;28;20057;-81
2023/06/01 06:15:27;;;;;;;5.50;3.67;;;19.60;92.30;;;;;;5023435;28;20025;-77
2023/06/01 06:17:52;;;;;;;9.23;3.58;;;19.40;92.80;;;;;;5027650;28;20449;-78
2023/06/01 06:20:21;;;;;;;5.32;3.90;;;19.30;93.60;;;;;;5022458;28;20032;-78
2023/06/01 06:22:50;;;;;;;6.28;3.53;;;19.30;93.70;;;;;;5022535;28;20018;-78
2023/06/01 06:25:16;;;;;;;5.47;4.15;;;19.40;93.30;;;;;;5022857;28;20024;-77
2023/06/01 06:27:42;;;;;;;4.55;3.75;;;19.60;92.80;;;;;;5022907;28;20041;-77
2023/06/01 06:30:08;;;;;;;5.80;3.47;;;19.90;92.50;;;;;;5004993;28;20463;-78
2023/06/01 06:32:34;;;;;;;6.97;3.05;;;20.10;91.70;;;;;;5010083;28;20022;-78
2023/06/01 06:35:00;;;;;;;6.18;3.65;;;20.20;91.80;;;;;;5031247;28;20022;-78
2023/06/01 06:37:27;;;;;;;5.30;3.15;;;20.40;91.10;;;;;;5015008;28;20092;-77
2023/06/01 06:39:53;;;;;;;6.60;3.20;;;20.70;90.50;;;;;;5010685;28;20025;-77
2023/06/01 06:42:18;;;;;;;5.13;3.22;;;20.90;89.30;;;;;;5023863;28;20028;-77
2023/06/01 06:44:44;;;;;;;6.20;3.78;;;21.00;86.60;;;;;;5024086;28;20104;-77
2023/06/01 06:47:14;;;;;;;3.75;2.95;;;21.10;87.00;;;;;;5021947;28;20029;-77
2023/06/01 06:49:40;;;;;;;4.50;2.47;;;21.20;87.10;;;;;;5001632;28;20026;-78
2023/06/01 06:52:08;;;;;;;6.68;2.80;;;21.20;86.40;;;;;;5003436;28;20045;-77
2023/06/01 06:54:35;;;;;;;6.53;3.85;;;21.30;85.50;;;;;;5026130;28;20101;-78
2023/06/01 06:57:00;;;;;;;5.15;3.75;;;21.30;85.00;;;;;;5024151;28;20045;-78
2023/06/01 06:59:26;;;;;;;4.65;2.95;;;21.50;84.10;;;;;;5043609;28;20406;-78
2023/06/01 07:01:52;;;;;;;4.15;2.22;;;21.70;81.50;;;;;;5042134;28;20535;-75
2023/06/01 07:04:17;;;;;;;6.38;2.90;;;21.80;79.70;;;;;;5043232;28;20029;-77
2023/06/01 07:06:43;;;;;;;2.72;2.35;;;21.90;80.30;;;;;;5042507;28;20017;-77
2023/06/01 07:09:09;;;;;;;3.45;2.72;;;21.80;79.60;;;;;;5060263;28;20124;-76
2023/06/01 07:11:35;;;;;;;4.72;2.75;;;21.90;79.20;;;;;;5043674;28;20025;-77
2023/06/01 07:14:01;;;;;;;4.72;2.97;;;22.20;78.10;;;;;;5060641;28;20033;-77
2023/06/01 07:16:28;;;;;;;5.85;2.53;;;22.40;75.80;;;;;;5043254;28;20048;-75
2023/06/01 07:18:53;;;;;;;2.67;2.03;;;22.40;76.20;;;;;;5060424;28;20033;-74
2023/06/01 07:21:20;;;;;;;3.83;2.08;;;22.60;77.60;;;;;;5043664;28;20037;-75
2023/06/01 07:23:46;;;;;;;2.60;1.85;;;22.60;68.80;;;;;;5061009;28;20120;-76
2023/06/01 07:26:12;;;;;;;6.53;2.42;;;22.70;69.10;;;;;;5042991;28;20029;-76
2023/06/01 07:28:38;;;;;;;5.57;2.30;;;23.00;67.90;;;;;;5030544;28;20079;-78
2023/06/01 07:31:04;;;;;;;3.38;2.20;;;23.30;69.20;;;;;;5023364;28;20536;-78
2023/06/01 07:33:30;;;;;;;3.47;2.33;;;23.50;67.80;;;;;;5041244;28;20021;-78
2023/06/01 07:35:57;;;;;;;7.60;2.17;;;23.40;67.00;;;;;;5040936;28;20018;-78
2023/06/01 07:38:23;;;;;;;4.75;2.17;;;23.60;67.40;;;;;;5041216;28;20132;-78
2023/06/01 07:40:50;;;;;;;3.03;1.92;;;23.70;65.80;;;;;;5040651;28;20049;-78
2023/06/01 07:43:16;;;;;;;5.15;2.00;;;23.80;66.80;;;;;;5017049;28;20117;-77
2023/06/01 07:45:42;;;;;;;3.83;1.85;;;23.80;63.80;;;;;;5033710;28;20096;-77
2023/06/01 07:48:07;;;;;;;3.28;2.20;;;24.00;63.80;;;;;;5034004;28;20026;-77
2023/06/01 07:50:33;;;;;;;2.60;1.55;;;24.20;63.60;;;;;;5004708;28;20104;-77
2023/06/01 07:52:59;;;;;;;3.15;1.83;;;24.40;62.70;;;;;;5013681;28;20037;-77
2023/06/01 07:55:24;;;;;;;5.35;2.13;;;24.50;61.30;;;;;;5013563;28;20368;-77
2023/06/01 07:57:51;;;;;;;1.42;1.13;;;24.50;60.40;;;;;;5013700;28;20076;-77
2023/06/01 08:00:18;;;;;;;5.10;2.28;;;24.80;61.80;;;;;;5013805;28;20062;-76
2023/06/01 08:02:44;;;;;;;2.65;1.90;;;24.90;60.30;;;;;;4996355;28;20041;-77
2023/06/01 08:05:11;;;;;;;1.90;1.35;;;25.00;60.20;;;;;;4996212;28;20022;-77
2023/06/01 08:07:37;;;;;;;4.40;2.00;;;25.00;58.30;;;;;;5012595;28;20124;-77
2023/06/01 08:10:05;;;;;;;2.33;1.55;;;25.00;57.50;;;;;;4995305;28;20030;-76
2023/06/01 08:12:31;;;;;;;3.30;1.80;;;24.90;56.30;;;;;;4995926;28;20057;-77
2023/06/01 08:14:58;;;;;;;3.50;1.70;;;24.80;55.40;;;;;;5013428;28;20022;-77
2023/06/01 08:17:24;;;;;;;2.35;1.70;;;24.80;54.70;;;;;;5013018;28;20445;-77
2023/06/01 08:19:50;;;;;;;2.55;1.50;;;25.00;56.90;;;;;;5013187;28;20018;-77
2023/06/01 08:22:17;;;;;;;2.95;1.90;;;25.10;55.20;;;;;;4995607;28;20068;-76
2023/06/01 08:24:43;;;;;;;4.15;1.30;;;25.20;55.10;;;;;;5012908;28;20022;-77
2023/06/01 08:27:20;;;;;;;1.88;1.50;;;25.40;55.30;;;;;;5012993;28;20037;-76
2023/06/01 08:29:49;;;;;;;8.05;1.63;;;25.40;54.20;;;;;;4994949;28;20549;-75
2023/06/01 08:32:16;;;;;;;4.78;2.08;;;25.40;56.30;;;;;;4995375;28;20092;-77
2023/06/01 08:34:46;;;;;;;4.97;1.70;;;25.50;55.30;;;;;;5012746;28;20030;-75
2023/06/01 08:37:13;;;;;;;4.80;2.22;;;25.50;54.60;;;;;;5012691;28;20022;-76
2023/06/01 08:39:39;;;;;;;3.80;1.80;;;25.50;55.20;;;;;;4995995;28;20491;-76
2023/06/01 08:42:12;;;;;;;2.92;1.95;;;25.60;54.70;;;;;;4995975;28;20622;-78
2023/06/01 08:44:42;;;;;;;4.25;1.88;;;25.70;55.60;;;;;;5016703;28;20021;-78
2023/06/01 08:47:08;;;;;;;3.50;2.42;;;25.80;55.60;;;;;;4999482;28;20018;-79
2023/06/01 08:49:36;;;;;;;4.78;2.10;;;25.90;55.40;;;;;;4998480;28;20022;-79
2023/06/01 08:52:11;;;;;;;1.80;1.65;;;26.00;55.40;;;;;;4999845;28;20033;-77
2023/06/01 08:54:38;;;;;;;5.05;1.83;;;26.00;54.80;;;;;;4998389;28;20080;-77
2023/06/01 08:57:09;;;;;;;6.30;1.70;;;25.80;55.50;;;;;;5016681;28;20026;-79
2023/06/01 08:59:35;;;;;;;3.70;2.03;;;25.80;55.70;;;;;;4998581;28;20032;-78
2023/06/01 09:02:02;;;;;;;6.72;1.85;;;25.80;56.50;;;;;;4998243;28;20110;-78
2023/06/01 09:04:30;;;;;;;4.57;2.35;;;25.80;55.00;;;;;;4998220;28;20085;-79
2023/06/01 09:06:56;;;;;;;4.30;2.20;;;25.90;56.70;;;;;;4998049;28;20483;-78
2023/06/01 09:09:22;;;;;;;2.72;2.30;;;25.90;55.00;;;;;;4997473;28;20494;-78
2023/06/01 09:11:47;;;;;;;4.80;2.10;;;25.90;55.50;;;;;;4997085;28;20018;-78
2023/06/01 09:14:21;;;;;;;4.07;2.55;;;26.00;55.20;;;;;;4997238;28;20029;-78
2023/06/01 09:16:47;;;;;;;2.05;1.88;;;26.10;54.90;;;;;;4995945;28;20040;-78
2023/06/01 09:19:13;;;;;;;4.93;2.13;;;26.20;54.70;;;;;;5013964;28;20041;-78
2023/06/01 09:21:39;;;;;;;2.10;1.90;;;26.20;55.40;;;;;;4995760;28;20121;-79
2023/06/01 09:24:26;;;;;;;3.45;1.95;;;26.30;54.30;;;;;;4995491;28;20157;-79
2023/06/01 09:26:59;;;;;;;4.82;2.40;;;26.30;53.90;;;;;;4995027;28;20021;-79
2023/06/01 09:29:26;;;;;;;2.80;1.92;;;26.20;52.60;;;;;;4994204;28;20022;-78
2023/06/01 09:31:52;;;;;;;3.45;2.30;;;26.20;54.20;;;;;;4994683;28;20026;-79
2023/06/01 09:34:21;;;;;;;4.57;1.77;;;26.20;53.70;;;;;;4994907;28;20029;-78
2023/06/01 09:36:53;;;;;;;5.00;1.60;;;26.20;53.90;;;;;;4994800;28;20021;-79
2023/06/01 09:39:21;;;;;;;1.42;1.30;;;26.10;53.80;;;;;;4994729;28;20483;-77
2023/06/01 09:41:58;;;;;;;2.63;1.77;;;26.20;53.90;;;;;;5012368;28;20368;-77
2023/06/01 09:44:35;;;;;;;2.15;1.95;;;26.10;54.00;;;;;;4994741;28;20109;-76
2023/06/01 09:47:03;;;;;;;4.22;2.33;;;26.20;54.10;;;;;;4994722;28;20112;-77
2023/06/01 09:49:37;;;;;;;2.97;1.77;;;26.30;56.00;;;;;;4997591;28;20032;-77
2023/06/01 09:52:03;;;;;;;2.33;1.63;;;26.30;53.90;;;;;;4998608;28;20041;-76
2023/06/01 09:54:31;;;;;;;3.15;2.33;;;26.30;54.30;;;;;;4999176;28;20030;-76
2023/06/01 09:56:59;;;;;;;2.83;2.35;;;26.40;53.60;;;;;;5017370;28;20033;-76
2023/06/01 09:59:26;;;;;;;5.65;2.47;;;26.40;54.60;;;;;;5016144;28;20026;-78
2023/06/01 10:01:54;;;;;;;3.85;1.65;;;26.40;54.60;;;;;;5016254;28;20113;-77
2023/06/01 10:04:24;;;;;;;2.85;1.70;;;26.40;54.40;;;;;;5016514;28;20022;-77
2023/06/01 10:06:52;;;;;;;2.10;1.77;;;26.40;55.00;;;;;;5016527;28;20019;-77
2023/06/01 10:09:19;;;;;;;4.13;2.17;;;26.30;54.80;;;;;;5016172;28;20022;-77
2023/06/01 10:11:52;;;;;;;5.97;1.98;;;26.00;54.40;;;;;;4998381;28;20052;-76
2023/06/01 10:14:22;;;;;;;2.58;2.35;;;26.00;55.20;;;;;;4998892;28;20037;-76
2023/06/01 10:16:50;;;;;;;4.40;1.95;;;26.20;55.10;;;;;;4998826;28;20026;-77
2023/06/01 10:19:17;;;;;;;7.40;2.38;;;26.30;55.10;;;;;;4998533;28;20431;-77
2023/06/01 10:21:45;;;;;;;4.78;2.75;;;26.40;54.90;;;;;;5060905;22;20045;-78
2023/06/01 10:24:11;;;;;;;5.78;2.30;;;26.40;56.30;;;;;;5058584;28;20025;-78
2023/06/01 10:26:47;;;;;;;4.43;2.22;;;26.50;55.50;;;;;;5058288;28;20070;-78
2023/06/01 10:29:17;;;;;;;2.33;1.75;;;26.50;53.40;;;;;;5042173;28;20032;-77
2023/06/01 10:31:43;;;;;;;3.40;2.30;;;26.40;53.00;;;;;;5062230;28;20405;-78
2023/06/01 10:34:10;;;;;;;2.45;1.80;;;26.40;54.70;;;;;;5063053;28;20020;-78
2023/06/01 10:36:51;;;;;;;4.65;1.65;;;26.30;54.10;;;;;;5062919;28;20436;-77
2023/06/01 10:39:25;;;;;;;3.28;2.47;;;26.30;55.40;;;;;;5046142;28;20025;-78
2023/06/01 10:41:51;;;;;;;2.72;2.00;;;26.50;54.30;;;;;;5042056;28;20028;-78
2023/06/01 10:44:39;;;;;;;9.85;2.38;;;26.70;55.40;;;;;;5043022;28;20036;-78
2023/06/01 10:47:25;;;;;;;2.83;1.70;;;26.90;54.80;;;;;;5033505;28;20512;-78
2023/06/01 10:49:51;;;;;;;3.10;1.88;;;26.90;54.30;;;;;;5017487;28;20034;-76
2023/06/01 10:52:38;;;;;;;4.03;2.20;;;26.90;53.50;;;;;;5041570;28;20020;-77
2023/06/01 10:55:07;;;;;;;6.05;1.90;;;27.10;53.80;;;;;;5038935;28;20032;-78
2023/06/01 10:57:36;;;;;;;3.42;2.13;;;27.20;53.30;;;;;;5044155;28;20036;-78
2023/06/01 11:00:14;;;;;;;4.60;1.98;;;27.10;52.60;;;;;;5040180;28;20061;-78
2023/06/01 11:03:01;;;;;;;4.53;2.08;;;27.10;53.50;;;;;;5057166;28;20013;-78
2023/06/01 11:05:40;;;;;;;2.80;2.05;;;27.20;53.80;;;;;;5056695;28;20029;-77
2023/06/01 11:08:09;;;;;;;2.70;2.00;;;27.40;52.40;;;;;;5056135;28;20024;-77
2023/06/01 11:10:50;;;;;;;5.28;2.30;;;27.50;50.60;;;;;;5053874;28;20144;-77
2023/06/01 11:13:18;;;;;;;3.20;2.00;;;27.70;50.70;;;;;;5038089;28;20030;-77
2023/06/01 11:16:14;;;;;;;2.28;1.85;;;27.90;52.30;;;;;;5035933;28;20034;-78
2023/06/01 11:18:57;;;;;;;2.30;1.67;;;28.00;51.50;;;;;;5017156;28;20109;-77
2023/06/01 11:21:33;;;;;;;4.07;2.05;;;28.10;50.20;;;;;;5035627;28;20045;-76
2023/06/01 11:24:00;;;;;;;3.63;2.05;;;27.90;48.60;;;;;;5018335;28;20575;-77
2023/06/01 11:26:40;;;;;;;3.30;2.33;;;27.70;49.60;;;;;;5016976;28;20120;-76
2023/06/01 11:29:12;;;;;;;2.90;2.05;;;27.60;52.00;;;;;;5016698;28;20051;-77
2023/06/01 11:31:45;;;;;;;3.05;1.98;;;27.80;51.50;;;;;;5017899;28;20502;-77
2023/06/01 11:34:12;;;;;;;2.65;2.30;;;27.70;50.60;;;;;;5034469;28;20025;-77
2023/06/01 11:36:49;;;;;;;2.33;1.77;;;27.70;50.70;;;;;;5034922;28;20414;-76
2023/06/01 11:39:22;;;;;;;4.88;2.33;;;27.70;50.30;;;;;;5035590;28;20033;-78
2023/06/01 11:41:52;;;;;;;2.22;1.92;;;27.80;50.90;;;;;;5036088;28;20029;-78
2023/06/01 11:44:18;;;;;;;2.90;2.15;;;27.90;51.00;;;;;;5036832;28;20026;-77
2023/06/01 11:46:52;;;;;;;5.90;2.50;;;27.90;49.60;;;;;;5044726;28;20032;-77
2023/06/01 11:49:17;;;;;;;4.50;2.30;;;27.80;49.00;;;;;;5043376;28;20021;-77
2023/06/01 11:51:43;;;;;;;3.50;2.13;;;27.80;50.10;;;;;;5038141;28;20107;-77
2023/06/01 11:54:09;;;;;;;3.85;2.28;;;27.90;50.30;;;;;;5034643;28;20096;-77
2023/06/01 11:56:39;;;;;;;4.90;3.05;;;27.70;51.00;;;;;;5017159;28;20393;-78
2023/06/01 11:59:09;;;;;;;3.38;1.70;;;27.60;51.10;;;;;;5037312;28;20102;-77
2023/06/01 12:01:46;;;;;;;2.20;1.85;;;27.30;50.70;;;;;;5023308;28;20051;-77
2023/06/01 12:04:32;;;;;;;3.40;2.55;;;27.10;51.50;;;;;;5042649;28;20037;-78
2023/06/01 12:07:05;;;;;;;4.63;1.52;;;26.90;51.30;;;;;;5025402;28;20092;-78
2023/06/01 12:09:32;;;;;;;4.40;2.50;;;26.80;50.80;;;;;;5023126;28;20068;-78
2023/06/01 12:11:58;;;;;;;2.70;1.80;;;26.70;51.10;;;;;;5040409;28;20013;-77
2023/06/01 12:14:24;;;;;;;3.30;2.42;;;27.00;51.50;;;;;;5022683;28;20073;-78
2023/06/01 12:17:02;;;;;;;2.60;2.10;;;27.10;51.50;;;;;;5021405;28;20551;-77
2023/06/01 12:19:28;;;;;;;3.38;2.72;;;27.10;51.00;;;;;;5038990;28;20056;-78
2023/06/01 12:21:56;;;;;;;7.97;2.30;;;27.40;51.20;;;;;;5037891;28;20037;-78
2023/06/01 12:24:33;;;;;;;2.40;2.20;;;27.70;50.20;;;;;;5037631;28;20100;-77
2023/06/01 12:26:59;;;;;;;4.68;2.30;;;27.90;50.60;;;;;;5018574;28;20529;-77
2023/06/01 12:29:46;;;;;;;6.18;2.58;;;27.90;50.00;;;;;;5019291;28;20022;-77
2023/06/01 12:32:14;;;;;;;3.88;2.45;;;28.00;49.20;;;;;;5022754;28;20018;-77
2023/06/01 12:34:48;;;;;;;3.15;2.13;;;28.00;48.60;;;;;;5020807;28;20053;-77
2023/06/01 12:37:18;;;;;;;2.92;1.55;;;27.70;49.70;;;;;;5037993;28;20082;-77
2023/06/01 12:39:52;;;;;;;5.28;2.10;;;27.80;51.40;;;;;;5020225;28;20026;-77
2023/06/01 12:42:18;;;;;;;2.47;2.20;;;27.70;51.00;;;;;;5037216;28;20036;-77
2023/06/01 12:44:46;;;;;;;4.60;2.17;;;27.80;49.70;;;;;;5040312;28;20026;-77
2023/06/01 12:47:11;;;;;;;2.72;1.88;;;27.70;50.40;;;;;;5036094;28;20024;-78
2023/06/01 12:49:38;;;;;;;3.80;2.38;;;27.90;49.80;;;;;;5036388;28;20034;-77
2023/06/01 12:52:04;;;;;;;3.60;2.17;;;27.80;49.40;;;;;;5036715;28;20022;-77
2023/06/01 12:54:30;;;;;;;2.47;2.25;;;27.70;50.10;;;;;;5036892;28;20022;-76
2023/06/01 12:56:56;;;;;;;5.47;2.47;;;27.40;50.40;;;;;;5019548;28;20025;-78